Time;durP1;ratioP1;P1;durP2;ratioP2;P2;SDS_P1;SDS_P2;PMS_P1;PMS_P2;Temp;Humidity;BMP_temperature;BMP_pressure;BME280_temperature;BME280_humidity;BME280_pressure;Samples;Min_cycle;Max_cycle;Signal;HPM_P1;HPM_P2
2023/10/24 00:00:27;;;;;;;;;;;;;;;17.47;56.84;99769.53;3171115;28;19926;-69
2023/10/24 00:01:57;;;;;;;;;;;;;;;17.45;57.15;99759.13;3164049;28;19924;-68
2023/10/24 00:03:29;;;;;;;;;;;;;;;17.39;57.34;99764.84;3171447;28;19919;-69
2023/10/24 00:04:59;;;;;;;;;;;;;;;17.38;57.33;99767.59;3171399;28;19931;-67
2023/10/24 00:06:31;;;;;;;;;;;;;;;17.37;57.47;99772.03;3170585;28;20388;-68
2023/10/24 00:08:01;;;;;;;;;;;;;;;16.80;57.34;99670.94;3165650;28;20045;-69
2023/10/24 00:09:33;;;;;;;;;;;;;;;17.37;57.29;99760.66;3159265;28;19993;-69
2023/10/24 00:11:04;;;;;;;;;;;;;;;17.37;57.16;99753.59;3158465;28;19930;-68
2023/10/24 00:12:37;;;;;;;;;;;;;;;17.36;57.34;99757.19;3166172;28;19920;-69
2023/10/24 00:14:08;;;;;;;;;;;;;;;17.35;57.14;99755.50;3170818;28;19927;-69
2023/10/24 00:15:39;;;;;;;;;;;;;;;17.35;57.29;99747.59;3170996;28;19954;-69
2023/10/24 00:17:10;;;;;;;;;;;;;;;17.34;57.31;99756.44;3167497;28;19927;-69
2023/10/24 00:18:41;;;;;;;;;;;;;;;17.33;57.25;99756.56;3170871;28;19920;-66
2023/10/24 00:20:12;;;;;;;;;;;;;;;17.30;57.57;99744.44;3164313;28;19996;-69
2023/10/24 00:21:43;;;;;;;;;;;;;;;17.28;57.50;99751.66;3170986;28;19995;-69
2023/10/24 00:23:14;;;;;;;;;;;;;;;17.26;57.69;99746.47;3161469;28;19924;-68
2023/10/24 00:24:46;;;;;;;;;;;;;;;17.25;57.81;99750.06;3150054;28;19942;-69
2023/10/24 00:26:16;;;;;;;;;;;;;;;17.24;57.78;99744.91;3157185;28;19920;-69
2023/10/24 00:27:49;;;;;;;;;;;;;;;17.22;57.79;99742.41;3170773;28;20260;-69
2023/10/24 00:29:19;;;;;;;;;;;;;;;17.23;57.66;99745.88;3171047;28;20087;-69
2023/10/24 00:30:51;;;;;;;;;;;;;;;17.22;57.97;99749.47;3167375;28;19920;-69
2023/10/24 00:32:22;;;;;;;;;;;;;;;17.16;58.15;99748.13;3170206;28;20396;-69
2023/10/24 00:33:53;;;;;;;;;;;;;;;17.14;58.28;99743.91;3170331;28;19976;-69
2023/10/24 00:35:24;;;;;;;;;;;;;;;17.12;58.21;99753.72;3171265;28;20593;-69
2023/10/24 00:36:56;;;;;;;;;;;;;;;17.07;58.39;99746.16;3170998;28;19923;-69
2023/10/24 00:38:28;;;;;;;;;;;;;;;17.04;58.68;99755.13;3170743;28;20411;-69
2023/10/24 00:39:58;;;;;;;;;;;;;;;16.99;58.88;99754.59;3170727;28;19931;-69
2023/10/24 00:41:30;;;;;;;;;;;;;;;16.93;59.20;99752.41;3157949;28;19981;-68
2023/10/24 00:43:09;;;;;;;;;;;;;;;16.89;59.42;99750.97;3159084;28;19926;-68
2023/10/24 00:44:41;;;;;;;;;;;;;;;16.86;59.41;99751.19;3170303;28;20404;-70
2023/10/24 00:46:13;;;;;;;;;;;;;;;16.84;59.32;99742.56;3165397;28;20419;-69
2023/10/24 00:47:44;;;;;;;;;;;;;;;16.83;59.30;99747.00;3170613;28;19931;-68
2023/10/24 00:49:16;;;;;;;;;;;;;;;16.84;59.15;99739.94;3170643;28;19927;-68
2023/10/24 00:50:46;;;;;;;;;;;;;;;16.85;59.33;99741.59;3170287;28;19928;-69
2023/10/24 00:52:18;;;;;;;;;;;;;;;16.86;59.21;99745.06;3170852;28;20316;-69
2023/10/24 00:53:50;;;;;;;;;;;;;;;16.86;59.28;99743.31;3152479;28;19920;-65
2023/10/24 00:55:22;;;;;;;;;;;;;;;16.87;59.20;99741.50;3163310;28;19927;-69
2023/10/24 00:56:53;;;;;;;;;;;;;;;16.87;59.24;99741.50;3160787;28;20419;-69
2023/10/24 00:58:26;;;;;;;;;;;;;;;16.86;58.99;99745.06;3170222;28;20022;-69
2023/10/24 00:59:57;;;;;;;;;;;;;;;16.85;59.08;99744.22;3167658;28;19927;-69
2023/10/24 01:01:29;;;;;;;;;;;;;;;16.84;59.25;99739.94;3168349;28;19927;-69
2023/10/24 01:03:00;;;;;;;;;;;;;;;16.83;59.05;99746.16;3165318;28;19946;-69
2023/10/24 01:04:32;;;;;;;;;;;;;;;16.80;59.12;99739.31;3170489;28;20349;-69
2023/10/24 01:06:03;;;;;;;;;;;;;;;16.76;59.26;99743.09;3169791;28;19996;-69
2023/10/24 01:07:35;;;;;;;;;;;;;;;16.74;59.44;99747.63;3167440;28;19923;-69
2023/10/24 01:09:06;;;;;;;;;;;;;;;16.72;59.43;99748.69;3157873;28;20006;-69
2023/10/24 01:10:37;;;;;;;;;;;;;;;16.71;59.38;99739.97;3163484;28;20319;-69
2023/10/24 01:12:09;;;;;;;;;;;;;;;16.69;59.44;99738.38;3165787;28;20002;-69
2023/10/24 01:13:41;;;;;;;;;;;;;;;16.67;59.56;99741.09;3170322;28;20442;-69
2023/10/24 01:15:12;;;;;;;;;;;;;;;16.66;59.41;99734.19;3164624;28;19923;-69
2023/10/24 01:16:44;;;;;;;;;;;;;;;16.65;59.49;99736.91;3160695;28;19934;-69
2023/10/24 01:18:15;;;;;;;;;;;;;;;16.64;59.54;99732.59;3170262;28;19927;-68
2023/10/24 01:19:46;;;;;;;;;;;;;;;16.63;59.51;99738.81;3170288;28;19920;-68
2023/10/24 01:21:17;;;;;;;;;;;;;;;16.62;59.49;99724.81;3170389;28;20264;-68
2023/10/24 01:22:49;;;;;;;;;;;;;;;16.62;59.46;99740.59;3164432;28;20039;-67
2023/10/24 01:24:21;;;;;;;;;;;;;;;16.60;59.49;99739.88;3148468;28;19927;-66
2023/10/24 01:25:52;;;;;;;;;;;;;;;16.59;59.63;99744.28;3156976;28;20340;-68
2023/10/24 01:27:24;;;;;;;;;;;;;;;16.57;59.71;99738.31;3151332;28;20003;-65
2023/10/24 01:28:54;;;;;;;;;;;;;;;16.55;59.83;99742.81;3164898;28;19923;-66
2023/10/24 01:30:26;;;;;;;;;;;;;;;16.53;59.72;99744.72;3167396;28;19930;-66
2023/10/24 01:31:56;;;;;;;;;;;;;;;16.49;59.72;99738.00;3170115;28;19926;-68
2023/10/24 01:33:29;;;;;;;;;;;;;;;16.47;60.01;99745.13;3162678;28;20006;-68
2023/10/24 01:34:59;;;;;;;;;;;;;;;16.43;60.00;99748.09;3164740;28;20427;-69
2023/10/24 01:36:31;;;;;;;;;;;;;;;16.40;60.07;99743.91;3169801;28;19935;-69
2023/10/24 01:38:03;;;;;;;;;;;;;;;16.38;60.23;99743.16;3170324;28;20438;-69
2023/10/24 01:39:35;;;;;;;;;;;;;;;16.37;60.00;99734.44;3170012;28;20583;-68
2023/10/24 01:41:05;;;;;;;;;;;;;;;16.37;60.16;99738.88;3169729;28;19920;-69
2023/10/24 01:42:37;;;;;;;;;;;;;;;16.37;60.17;99741.50;3157569;28;19930;-70
2023/10/24 01:44:07;;;;;;;;;;;;;;;16.37;60.13;99736.22;3165754;28;20046;-70
2023/10/24 01:45:39;;;;;;;;;;;;;;;16.36;59.99;99738.03;3170092;28;20415;-70
2023/10/24 01:47:09;;;;;;;;;;;;;;;16.36;60.12;99737.19;3170110;28;19924;-71
2023/10/24 01:48:41;;;;;;;;;;;;;;;16.34;60.08;99739.06;3144973;28;19920;-70
2023/10/24 01:50:12;;;;;;;;;;;;;;;16.33;60.24;99740.03;3168610;28;19919;-69
2023/10/24 01:51:43;;;;;;;;;;;;;;;16.31;60.18;99737.50;3169700;28;20048;-70
2023/10/24 01:53:15;;;;;;;;;;;;;;;16.29;60.22;99736.75;3157267;28;19967;-69
2023/10/24 01:54:47;;;;;;;;;;;;;;;16.28;60.24;99736.88;3162539;28;20380;-69
2023/10/24 01:56:17;;;;;;;;;;;;;;;16.26;60.36;99741.41;3165276;28;20478;-69
2023/10/24 01:57:49;;;;;;;;;;;;;;;16.26;60.33;99736.13;3162009;28;19920;-69
2023/10/24 01:59:20;;;;;;;;;;;;;;;16.23;60.39;99736.34;3164240;28;19930;-69
2023/10/24 02:00:52;;;;;;;;;;;;;;;16.23;60.24;99733.72;3163969;28;20317;-69
2023/10/24 02:02:22;;;;;;;;;;;;;;;16.24;60.32;99741.50;3160036;28;19973;-69
2023/10/24 02:03:55;;;;;;;;;;;;;;;16.22;60.63;99732.06;3169693;28;19923;-69
2023/10/24 02:05:27;;;;;;;;;;;;;;;16.21;60.62;99735.59;3169711;28;19920;-69
2023/10/24 02:06:58;;;;;;;;;;;;;;;16.20;60.53;99733.94;3168162;28;19927;-70
2023/10/24 02:08:30;;;;;;;;;;;;;;;16.21;60.57;99738.25;3162123;28;19921;-69
2023/10/24 02:10:03;;;;;;;;;;;;;;;16.19;60.76;99741.00;3158697;28;19920;-69
2023/10/24 02:11:34;;;;;;;;;;;;;;;16.18;60.62;99739.31;3167365;28;20226;-69
2023/10/24 02:13:05;;;;;;;;;;;;;;;16.17;60.64;99734.16;3152763;28;20281;-70
2023/10/24 02:14:36;;;;;;;;;;;;;;;16.15;60.82;99732.47;3169695;28;19919;-67
2023/10/24 02:16:07;;;;;;;;;;;;;;;16.15;60.63;99732.47;3169641;28;20415;-69
2023/10/24 02:17:41;;;;;;;;;;;;;;;16.14;60.88;99736.03;3169449;28;19924;-70
2023/10/24 02:19:12;;;;;;;;;;;;;;;16.13;60.64;99734.38;3169758;28;20014;-70
2023/10/24 02:20:43;;;;;;;;;;;;;;;16.13;60.99;99731.75;3169603;28;19931;-70
2023/10/24 02:22:14;;;;;;;;;;;;;;;15.92;60.99;99702.53;3169300;28;19919;-69
2023/10/24 02:23:47;;;;;;;;;;;;;;;16.12;61.03;99734.50;3160269;28;19950;-70
2023/10/24 02:25:17;;;;;;;;;;;;;;;16.11;60.94;99744.13;3164319;28;19923;-69
2023/10/24 02:26:49;;;;;;;;;;;;;;;16.11;61.29;99738.88;3169807;28;19919;-70
2023/10/24 02:28:20;;;;;;;;;;;;;;;16.11;61.22;99741.50;3161741;28;19963;-68
2023/10/24 02:29:51;;;;;;;;;;;;;;;16.10;61.31;99747.72;3169633;28;20389;-70
2023/10/24 02:31:22;;;;;;;;;;;;;;;16.09;61.25;99743.41;3169812;28;19919;-70
2023/10/24 02:33:00;;;;;;;;;;;;;;;16.09;61.30;99746.03;3169670;28;19945;-70
2023/10/24 02:34:30;;;;;;;;;;;;;;;16.08;61.08;99746.97;3169628;28;20484;-71
2023/10/24 02:36:14;;;;;;;;;;;;;;;16.06;61.38;99741.00;3170910;28;19920;-70
2023/10/24 02:37:44;;;;;;;;;;;;;;;16.06;61.29;99748.88;3172135;28;19949;-70
2023/10/24 02:39:18;;;;;;;;;;;;;;;16.04;61.40;99748.13;3172655;28;19920;-71
2023/10/24 02:40:52;;;;;;;;;;;;;;;16.04;61.30;99752.56;3171903;28;19919;-71
2023/10/24 02:42:24;;;;;;;;;;;;;;;16.04;61.37;99755.19;3165796;28;20081;-72
2023/10/24 02:43:54;;;;;;;;;;;;;;;16.04;61.40;99749.94;3172322;28;19930;-71
2023/10/24 02:45:26;;;;;;;;;;;;;;;16.03;61.42;99756.09;3172143;28;19920;-71
2023/10/24 02:46:56;;;;;;;;;;;;;;;16.02;61.38;99760.53;3172231;28;19920;-69
2023/10/24 02:48:28;;;;;;;;;;;;;;;16.02;61.44;99757.91;3171962;28;19919;-70
2023/10/24 02:50:00;;;;;;;;;;;;;;;16.00;61.61;99759.81;3171626;28;19924;-69
2023/10/24 02:51:30;;;;;;;;;;;;;;;15.99;61.72;99763.38;3163079;28;19920;-69
2023/10/24 02:53:06;;;;;;;;;;;;;;;15.99;61.59;99762.53;3158562;28;19920;-70
2023/10/24 02:54:38;;;;;;;;;;;;;;;15.98;61.51;99763.50;3163440;28;19942;-71
2023/10/24 02:56:10;;;;;;;;;;;;;;;15.96;61.56;99762.75;3166360;28;19924;-70
2023/10/24 02:57:40;;;;;;;;;;;;;;;15.95;61.65;99759.28;3160720;28;20002;-71
2023/10/24 02:59:13;;;;;;;;;;;;;;;15.92;61.64;99760.31;3157832;28;19920;-71
2023/10/24 03:00:44;;;;;;;;;;;;;;;15.93;61.75;99763.78;3171560;28;19919;-71
2023/10/24 03:02:16;;;;;;;;;;;;;;;15.91;61.69;99760.41;3166790;28;19931;-70
2023/10/24 03:03:46;;;;;;;;;;;;;;;15.91;61.73;99760.41;3171650;28;19927;-71
2023/10/24 03:05:18;;;;;;;;;;;;;;;15.90;61.85;99764.00;3172206;28;19923;-70
2023/10/24 03:06:48;;;;;;;;;;;;;;;15.89;61.82;99763.16;3169900;28;19927;-71
2023/10/24 03:08:20;;;;;;;;;;;;;;;15.89;61.95;99764.94;3164742;28;20342;-70
2023/10/24 03:09:53;;;;;;;;;;;;;;;15.88;61.95;99764.13;3159221;28;20478;-71
2023/10/24 03:11:23;;;;;;;;;;;;;;;15.87;61.84;99765.03;3167414;28;19931;-70
2023/10/24 03:12:55;;;;;;;;;;;;;;;15.88;62.26;99765.88;3163184;28;20344;-70
2023/10/24 03:14:25;;;;;;;;;;;;;;;15.86;62.11;99755.50;3167976;28;19927;-70
2023/10/24 03:16:01;;;;;;;;;;;;;;;15.87;62.05;99753.69;3171830;28;20448;-67
2023/10/24 03:17:32;;;;;;;;;;;;;;;15.86;62.19;99752.03;3171930;28;20369;-66
2023/10/24 03:19:04;;;;;;;;;;;;;;;15.84;62.18;99752.13;3171628;28;19924;-71
2023/10/24 03:20:34;;;;;;;;;;;;;;;15.83;62.37;99745.19;3171601;28;19930;-70
2023/10/24 03:22:06;;;;;;;;;;;;;;;15.84;62.34;99756.53;3171574;28;19926;-71
2023/10/24 03:23:36;;;;;;;;;;;;;;;15.83;62.12;99750.44;3157201;28;19931;-70
2023/10/24 03:25:10;;;;;;;;;;;;;;;15.82;62.38;99754.00;3157840;28;19920;-71
2023/10/24 03:26:40;;;;;;;;;;;;;;;15.82;62.31;99758.41;3166987;28;19919;-71
2023/10/24 03:28:13;;;;;;;;;;;;;;;15.81;62.13;99754.13;3170579;27;19926;-68
2023/10/24 03:29:45;;;;;;;;;;;;;;;15.82;62.41;99755.78;3171521;28;19923;-68
2023/10/24 03:31:17;;;;;;;;;;;;;;;15.82;62.33;99754.00;3171898;28;19934;-68
2023/10/24 03:32:47;;;;;;;;;;;;;;;15.80;62.32;99755.91;3171763;27;19924;-76
2023/10/24 03:34:19;;;;;;;;;;;;;;;15.80;62.46;99757.69;3171438;28;19919;-75
2023/10/24 03:35:50;;;;;;;;;;;;;;;15.80;62.39;99762.94;3171591;28;19924;-75
2023/10/24 03:37:22;;;;;;;;;;;;;;;15.78;62.61;99762.19;3171658;28;19959;-75
2023/10/24 03:38:53;;;;;;;;;;;;;;;15.77;62.35;99758.75;3171930;28;19927;-76
2023/10/24 03:40:26;;;;;;;;;;;;;;;15.78;62.79;99767.44;3169326;28;19930;-74
2023/10/24 03:41:58;;;;;;;;;;;;;;;15.77;62.65;99769.25;3169760;28;19981;-73
2023/10/24 03:43:28;;;;;;;;;;;;;;;15.78;62.53;99770.06;3160409;28;19954;-73
2023/10/24 03:45:00;;;;;;;;;;;;;;;15.77;62.67;99766.63;3165421;28;19924;-72
2023/10/24 03:46:31;;;;;;;;;;;;;;;15.79;62.64;99771.75;3171277;28;19935;-73
2023/10/24 03:48:02;;;;;;;;;;;;;;;15.77;62.73;99777.13;3170345;28;20405;-72
2023/10/24 03:49:33;;;;;;;;;;;;;;;15.78;62.71;99783.22;3168200;28;20418;-70
2023/10/24 03:51:05;;;;;;;;;;;;;;;15.77;62.53;99769.25;3166053;28;19939;-68
2023/10/24 03:52:35;;;;;;;;;;;;;;;15.78;62.55;99770.91;3162721;28;19931;-69
2023/10/24 03:54:07;;;;;;;;;;;;;;;15.78;62.70;99772.69;3153122;28;19923;-68
2023/10/24 03:55:39;;;;;;;;;;;;;;;15.78;62.62;99772.69;3159735;28;19927;-68
2023/10/24 03:57:10;;;;;;;;;;;;;;;15.77;62.97;99774.50;3161440;28;19924;-68
2023/10/24 03:58:41;;;;;;;;;;;;;;;15.77;63.13;99771.03;3156002;28;19947;-68
2023/10/24 04:00:13;;;;;;;;;;;;;;;15.76;63.40;99769.31;3154033;28;19924;-68
2023/10/24 04:01:44;;;;;;;;;;;;;;;15.75;63.13;99771.13;3164268;28;19927;-67
2023/10/24 04:03:16;;;;;;;;;;;;;;;15.75;63.40;99765.03;3151581;28;19931;-67
2023/10/24 04:04:48;;;;;;;;;;;;;;;15.75;63.21;99770.28;3156865;28;20014;-67
2023/10/24 04:06:19;;;;;;;;;;;;;;;15.75;63.40;99768.50;3164394;28;20181;-68
2023/10/24 04:07:50;;;;;;;;;;;;;;;15.74;63.38;99764.19;3160229;28;20309;-63
2023/10/24 04:09:22;;;;;;;;;;;;;;;15.75;63.42;99765.88;3154271;28;19931;-63
2023/10/24 04:10:54;;;;;;;;;;;;;;;15.74;63.45;99769.44;3155105;28;20118;-63
2023/10/24 04:12:25;;;;;;;;;;;;;;;15.74;63.43;99776.50;3158623;28;19924;-63
2023/10/24 04:13:56;;;;;;;;;;;;;;;15.74;63.34;99779.13;3155008;28;19924;-66
2023/10/24 04:15:27;;;;;;;;;;;;;;;15.73;63.51;99775.63;3146433;28;19924;-65
2023/10/24 04:16:58;;;;;;;;;;;;;;;15.74;63.27;99771.25;3158674;28;20488;-64
2023/10/24 04:18:30;;;;;;;;;;;;;;;15.74;63.32;99779.13;3166039;28;19924;-64
2023/10/24 04:20:00;;;;;;;;;;;;;;;15.72;63.38;99778.38;3165615;28;20400;-63
2023/10/24 04:21:32;;;;;;;;;;;;;;;15.71;63.63;99787.19;3165726;28;20065;-62
2023/10/24 04:23:03;;;;;;;;;;;;;;;15.72;63.57;99781.81;3158656;28;19930;-64
2023/10/24 04:24:34;;;;;;;;;;;;;;;15.72;63.57;99781.81;3149026;28;20028;-65
2023/10/24 04:26:06;;;;;;;;;;;;;;;15.72;63.56;99783.63;3153631;28;20219;-66
2023/10/24 04:27:38;;;;;;;;;;;;;;;15.71;63.62;99781.94;3165970;28;19934;-65
2023/10/24 04:29:09;;;;;;;;;;;;;;;15.68;63.56;99781.19;3150177;28;19925;-62
2023/10/24 04:30:41;;;;;;;;;;;;;;;15.67;63.68;99781.25;3164187;28;20403;-61
2023/10/24 04:32:12;;;;;;;;;;;;;;;15.68;63.76;99780.38;3165670;28;19984;-59
2023/10/24 04:33:44;;;;;;;;;;;;;;;15.68;63.80;99778.56;3165309;28;20396;-60
2023/10/24 04:35:15;;;;;;;;;;;;;;;15.47;63.82;99744.06;3165600;28;20382;-60
2023/10/24 04:36:46;;;;;;;;;;;;;;;15.72;63.70;99781.00;3165891;28;19980;-60
2023/10/24 04:38:18;;;;;;;;;;;;;;;15.71;63.85;99787.19;3165533;28;20017;-61
2023/10/24 04:39:48;;;;;;;;;;;;;;;15.68;63.67;99791.69;3161534;28;20001;-60
2023/10/24 04:41:21;;;;;;;;;;;;;;;15.66;63.67;99792.72;3165814;28;20417;-62
2023/10/24 04:42:52;;;;;;;;;;;;;;;15.65;63.77;99798.91;3165615;28;19931;-63
2023/10/24 04:44:24;;;;;;;;;;;;;;;15.63;63.92;99806.88;3159255;28;19924;-63
2023/10/24 04:45:54;;;;;;;;;;;;;;;15.62;63.82;99804.38;3165257;28;19935;-62
2023/10/24 04:47:26;;;;;;;;;;;;;;;15.62;63.71;99809.63;3162610;28;19930;-62
2023/10/24 04:48:57;;;;;;;;;;;;;;;15.62;63.91;99810.44;3154363;28;20383;-64
2023/10/24 04:50:28;;;;;;;;;;;;;;;15.63;63.88;99817.38;3157865;28;19963;-61
2023/10/24 04:51:59;;;;;;;;;;;;;;;15.66;63.79;99814.53;3164710;28;19923;-63
2023/10/24 04:53:31;;;;;;;;;;;;;;;15.67;63.64;99818.88;3155641;27;20492;-60
2023/10/24 04:55:03;;;;;;;;;;;;;;;15.70;63.68;99817.84;3153987;28;19928;-62
2023/10/24 04:56:36;;;;;;;;;;;;;;;15.72;63.42;99815.13;3155411;28;19930;-60
2023/10/24 04:58:06;;;;;;;;;;;;;;;15.75;63.52;99812.28;3157737;28;20431;-60
2023/10/24 04:59:38;;;;;;;;;;;;;;;15.77;63.37;99818.28;3155997;28;20015;-63
2023/10/24 05:01:28;;;;;;;;;;;;;;;15.78;63.38;99833.09;3137346;28;20752;-62
2023/10/24 05:02:59;;;;;;;;;;;;;;;15.78;63.53;99830.47;3163860;28;19924;-64
2023/10/24 05:04:30;;;;;;;;;;;;;;;15.78;63.48;99840.97;3160444;28;19971;-64
2023/10/24 05:06:02;;;;;;;;;;;;;;;15.78;63.25;99835.72;3155694;28;20360;-61
2023/10/24 05:07:33;;;;;;;;;;;;;;;15.78;63.49;99841.81;3157502;28;19928;-65
2023/10/24 05:09:06;;;;;;;;;;;;;;;15.79;63.41;99840.84;3154256;28;20459;-62
2023/10/24 05:10:37;;;;;;;;;;;;;;;15.82;63.31;99843.28;3164826;28;20380;-62
2023/10/24 05:12:10;;;;;;;;;;;;;;;15.84;63.31;99849.28;3157702;28;19975;-65
2023/10/24 05:13:41;;;;;;;;;;;;;;;15.86;63.19;99855.28;3165007;28;19974;-64
2023/10/24 05:15:19;;;;;;;;;;;;;;;15.88;63.25;99850.78;3140509;28;20015;-64
2023/10/24 05:16:50;;;;;;;;;;;;;;;15.89;63.32;99857.69;3165263;28;19928;-63
2023/10/24 05:18:21;;;;;;;;;;;;;;;15.91;63.27;99858.44;3164634;28;19955;-62
2023/10/24 05:19:52;;;;;;;;;;;;;;;15.92;63.22;99867.16;3165048;28;19924;-60
2023/10/24 05:21:23;;;;;;;;;;;;;;;15.95;63.09;99864.34;3164295;28;19924;-61
2023/10/24 05:22:54;;;;;;;;;;;;;;;15.97;63.03;99865.06;3159370;28;19928;-60
2023/10/24 05:24:26;;;;;;;;;;;;;;;16.00;63.03;99867.50;3150110;28;19974;-63
2023/10/24 05:25:56;;;;;;;;;;;;;;;16.03;62.82;99869.06;3159416;28;19934;-63
2023/10/24 05:27:31;;;;;;;;;;;;;;;15.87;62.81;99842.97;3159146;28;19990;-63
2023/10/24 05:29:02;;;;;;;;;;;;;;;16.08;62.74;99875.69;3156165;28;20050;-63
2023/10/24 05:30:33;;;;;;;;;;;;;;;16.15;62.62;99881.41;3150309;28;19924;-64
2023/10/24 05:32:04;;;;;;;;;;;;;;;16.18;62.55;99877.69;3160876;28;20315;-63
2023/10/24 05:33:36;;;;;;;;;;;;;;;16.22;62.55;99887.06;3165193;28;20321;-64
2023/10/24 05:35:07;;;;;;;;;;;;;;;16.27;62.52;99887.63;3165262;28;20305;-64
2023/10/24 05:36:38;;;;;;;;;;;;;;;16.30;62.49;99885.63;3164834;28;19977;-63
2023/10/24 05:38:09;;;;;;;;;;;;;;;16.35;62.34;99888.75;3160785;28;19931;-63
2023/10/24 05:39:41;;;;;;;;;;;;;;;16.40;62.15;99892.88;3164659;28;19924;-65
2023/10/24 05:41:11;;;;;;;;;;;;;;;16.45;62.06;99891.63;3164996;28;19977;-65
2023/10/24 05:42:45;;;;;;;;;;;;;;;16.51;61.81;99898.25;3164914;28;20400;-65
2023/10/24 05:44:16;;;;;;;;;;;;;;;16.57;61.81;99889.94;3161069;28;20430;-64
2023/10/24 05:45:48;;;;;;;;;;;;;;;16.63;61.71;99896.56;3142826;28;20021;-64
2023/10/24 05:47:18;;;;;;;;;;;;;;;16.69;61.61;99904.03;3164449;28;20096;-62
2023/10/24 05:48:50;;;;;;;;;;;;;;;16.75;61.33;99898.34;3152793;28;19950;-62
2023/10/24 05:50:21;;;;;;;;;;;;;;;16.83;61.13;99904.78;3164667;28;19923;-62
2023/10/24 05:51:53;;;;;;;;;;;;;;;16.92;60.96;99902.44;3164112;28;19924;-64
2023/10/24 05:53:23;;;;;;;;;;;;;;;16.99;61.12;99901.94;3154038;28;20333;-62
2023/10/24 05:54:55;;;;;;;;;;;;;;;17.05;60.95;99901.50;3156622;28;19935;-62
2023/10/24 05:56:25;;;;;;;;;;;;;;;17.11;60.69;99902.84;3160319;28;19957;-61
2023/10/24 05:57:59;;;;;;;;;;;;;;;17.21;60.62;99897.78;3152152;28;20010;-60
2023/10/24 05:59:29;;;;;;;;;;;;;;;17.29;60.21;99896.28;3139406;28;19924;-61
2023/10/24 06:01:01;;;;;;;;;;;;;;;17.39;60.33;99900.88;3151719;28;20031;-61
2023/10/24 06:02:33;;;;;;;;;;;;;;;17.46;60.18;99905.59;3159709;28;20528;-61
2023/10/24 06:04:04;;;;;;;;;;;;;;;17.52;60.00;99907.78;3154232;28;19967;-66
2023/10/24 06:05:36;;;;;;;;;;;;;;;17.59;59.83;99905.53;3161383;28;19924;-67
2023/10/24 06:07:07;;;;;;;;;;;;;;;17.46;59.50;99867.91;3154350;28;19986;-67
2023/10/24 06:08:39;;;;;;;;;;;;;;;17.77;59.43;99915.69;3156912;28;19927;-67
2023/10/24 06:10:10;;;;;;;;;;;;;;;17.88;59.11;99915.78;3158152;28;19972;-67
2023/10/24 06:11:42;;;;;;;;;;;;;;;17.98;58.87;99924.69;3160780;28;20418;-66
2023/10/24 06:13:14;;;;;;;;;;;;;;;18.07;58.59;99918.75;3156956;28;20543;-67
2023/10/24 06:14:46;;;;;;;;;;;;;;;18.17;58.32;99924.16;3160208;28;20026;-68
2023/10/24 06:16:18;;;;;;;;;;;;;;;18.28;58.12;99925.97;3156232;28;19924;-69
2023/10/24 06:17:55;;;;;;;;;;;;;;;18.41;57.55;99917.03;3168573;28;20010;-69
2023/10/24 06:19:26;;;;;;;;;;;;;;;18.60;57.19;99920.91;3170277;28;20329;-69
2023/10/24 06:20:57;;;;;;;;;;;;;;;18.83;56.82;99925.28;3162653;28;19920;-66
2023/10/24 06:22:29;;;;;;;;;;;;;;;19.04;56.22;99919.28;3164291;28;19919;-68
2023/10/24 06:24:00;;;;;;;;;;;;;;;19.29;55.70;99918.22;3151571;28;19935;-64
2023/10/24 06:25:36;;;;;;;;;;;;;;;19.53;55.12;99923.31;3155810;28;19930;-63
2023/10/24 06:27:09;;;;;;;;;;;;;;;19.78;54.43;99919.53;3169467;28;19920;-63
2023/10/24 06:28:41;;;;;;;;;;;;;;;19.97;53.80;99917.09;3169652;28;20377;-63
2023/10/24 06:30:13;;;;;;;;;;;;;;;20.17;53.43;99922.50;3166696;28;19986;-63
2023/10/24 06:31:43;;;;;;;;;;;;;;;20.37;53.16;99924.31;3163370;28;19920;-62
2023/10/24 06:33:15;;;;;;;;;;;;;;;20.53;52.59;99920.41;3169844;28;20065;-63
2023/10/24 06:34:47;;;;;;;;;;;;;;;20.59;51.83;99919.91;3158216;28;19924;-63
2023/10/24 06:36:20;;;;;;;;;;;;;;;20.68;51.82;99909.38;3160520;28;20404;-63
2023/10/24 06:37:51;;;;;;;;;;;;;;;20.86;51.70;99919.34;3166582;28;20002;-62
2023/10/24 06:39:23;;;;;;;;;;;;;;;21.02;51.72;99913.56;3169940;28;19927;-62
2023/10/24 06:40:55;;;;;;;;;;;;;;;21.27;51.61;99910.47;3163733;28;19976;-62
2023/10/24 06:42:27;;;;;;;;;;;;;;;21.60;51.48;99907.63;3164208;28;20417;-63
2023/10/24 06:44:00;;;;;;;;;;;;;;;22.11;50.48;99910.00;3169715;28;20132;-62
2023/10/24 06:45:31;;;;;;;;;;;;;;;22.70;49.33;99908.94;3156932;28;19932;-63
2023/10/24 06:47:03;;;;;;;;;;;;;;;23.37;48.13;99904.34;3158546;28;19920;-60
2023/10/24 06:48:33;;;;;;;;;;;;;;;23.98;47.11;99901.97;3168591;28;20350;-60
2023/10/24 06:50:05;;;;;;;;;;;;;;;24.64;46.14;99903.31;3169551;28;20223;-60
2023/10/24 06:51:36;;;;;;;;;;;;;;;25.23;45.15;99899.00;3162128;28;19920;-59
2023/10/24 06:53:08;;;;;;;;;;;;;;;25.66;43.55;99899.75;3154103;28;19924;-60
2023/10/24 06:54:39;;;;;;;;;;;;;;;26.17;42.74;99896.97;3159379;28;19920;-60
2023/10/24 06:56:11;;;;;;;;;;;;;;;26.66;42.03;99889.75;3164029;28;19931;-60
2023/10/24 06:57:41;;;;;;;;;;;;;;;27.16;41.45;99891.28;3158597;28;19923;-61
2023/10/24 06:59:14;;;;;;;;;;;;;;;27.60;40.31;99887.19;3149696;28;19927;-62
2023/10/24 07:00:45;;;;;;;;;;;;;;;27.97;39.62;99883.75;3151598;28;19928;-62
2023/10/24 07:02:18;;;;;;;;;;;;;;;28.20;39.04;99880.22;3147881;28;20454;-62
2023/10/24 07:03:48;;;;;;;;;;;;;;;28.53;38.68;99878.06;3147178;28;20044;-60
2023/10/24 07:05:20;;;;;;;;;;;;;;;28.92;38.19;99879.63;3154921;28;20828;-62
2023/10/24 07:06:51;;;;;;;;;;;;;;;29.09;37.14;99886.50;3151019;28;19924;-62
2023/10/24 07:08:23;;;;;;;;;;;;;;;29.18;37.22;99882.69;3154304;28;21499;-62
2023/10/24 07:09:53;;;;;;;;;;;;;;;29.31;37.00;99873.94;3152499;28;20348;-62
2023/10/24 07:11:25;;;;;;;;;;;;;;;29.38;37.28;99882.09;3155170;28;19928;-61
2023/10/24 07:12:56;;;;;;;;;;;;;;;29.30;36.85;99879.50;3150460;28;19977;-62
2023/10/24 07:14:29;;;;;;;;;;;;;;;29.07;37.28;99872.44;3150489;28;20449;-63
2023/10/24 07:16:00;;;;;;;;;;;;;;;28.98;37.22;99868.97;3147323;28;19924;-61
2023/10/24 07:17:32;;;;;;;;;;;;;;;29.01;37.53;99868.59;3164643;28;20131;-60
2023/10/24 07:19:10;;;;;;;;;;;;;;;29.03;37.55;99869.28;3148167;28;19920;-63
2023/10/24 07:20:43;;;;;;;;;;;;;;;29.01;37.44;99867.78;3146433;28;19920;-61
2023/10/24 07:22:13;;;;;;;;;;;;;;;29.16;37.90;99862.44;3162366;28;19923;-61
2023/10/24 07:23:45;;;;;;;;;;;;;;;29.47;37.69;99865.69;3160720;28;20072;-62
2023/10/24 07:25:15;;;;;;;;;;;;;;;29.82;37.24;99860.47;3149790;28;19975;-61
2023/10/24 07:26:47;;;;;;;;;;;;;;;30.21;36.81;99861.03;3155345;28;20499;-60
2023/10/24 07:28:17;;;;;;;;;;;;;;;30.57;36.54;99863.53;3160910;28;19920;-60
2023/10/24 07:29:50;;;;;;;;;;;;;;;30.89;35.93;99862.06;3153725;28;20756;-60
2023/10/24 07:31:21;;;;;;;;;;;;;;;31.13;35.60;99857.22;3154772;28;19920;-62
2023/10/24 07:32:54;;;;;;;;;;;;;;;31.25;34.76;99855.59;3170141;28;19930;-62
2023/10/24 07:34:25;;;;;;;;;;;;;;;31.08;34.41;99856.97;3162387;28;20444;-61
2023/10/24 07:36:02;;;;;;;;;;;;;;;30.88;34.73;99860.44;3150992;28;20446;-61
2023/10/24 07:37:36;;;;;;;;;;;;;;;31.01;34.68;99859.66;3156678;28;20110;-61
2023/10/24 07:39:07;;;;;;;;;;;;;;;31.23;34.13;99853.09;3158746;28;19977;-61
2023/10/24 07:40:38;;;;;;;;;;;;;;;31.44;34.46;99856.69;3150574;28;20282;-61
2023/10/24 07:42:10;;;;;;;;;;;;;;;31.59;33.54;99859.19;3158570;28;19996;-61
2023/10/24 07:43:40;;;;;;;;;;;;;;;31.76;33.71;99854.25;3164978;28;19986;-61
2023/10/24 07:45:14;;;;;;;;;;;;;;;32.02;33.74;99850.78;3159420;28;19924;-61
2023/10/24 07:46:45;;;;;;;;;;;;;;;32.22;33.52;99829.22;3152073;28;19928;-61
2023/10/24 07:48:17;;;;;;;;;;;;;;;32.61;33.03;99850.72;3165584;28;19926;-60
2023/10/24 07:49:48;;;;;;;;;;;;;;;32.97;32.90;99840.41;3163081;28;19944;-60
2023/10/24 07:51:20;;;;;;;;;;;;;;;33.30;32.66;99838.38;3151435;28;19924;-60
2023/10/24 07:52:51;;;;;;;;;;;;;;;33.55;32.02;99844.94;3154584;28;20309;-59
2023/10/24 07:54:22;;;;;;;;;;;;;;;33.82;32.07;99840.16;3160409;28;19993;-59
2023/10/24 07:55:54;;;;;;;;;;;;;;;34.07;31.52;99830.19;3152979;28;19924;-59
2023/10/24 07:57:24;;;;;;;;;;;;;;;34.31;31.18;99839.31;3150838;28;19938;-60